sensor_id;sensor_type;location;lat;lon;timestamp;P1;durP1;ratioP1;P2;durP2;ratioP2
74415;SDS011;62850;42.428;25.618;2023-04-01T00:00:24;7.88;;;3.60;;
74415;SDS011;62850;42.428;25.618;2023-04-01T00:02:50;7.53;;;3.13;;
74415;SDS011;62850;42.428;25.618;2023-04-01T00:05:15;6.05;;;3.35;;
74415;SDS011;62850;42.428;25.618;2023-04-01T00:07:41;8.88;;;3.92;;
74415;SDS011;62850;42.428;25.618;2023-04-01T00:10:08;7.65;;;3.45;;
74415;SDS011;62850;42.428;25.618;2023-04-01T00:12:35;7.43;;;2.92;;
74415;SDS011;62850;42.428;25.618;2023-04-01T00:15:01;9.27;;;3.17;;
74415;SDS011;62850;42.428;25.618;2023-04-01T00:17:28;7.43;;;3.45;;
74415;SDS011;62850;42.428;25.618;2023-04-01T00:19:57;6.55;;;3.25;;
74415;SDS011;62850;42.428;25.618;2023-04-01T00:22:23;11.48;;;3.17;;
74415;SDS011;62850;42.428;25.618;2023-04-01T00:24:49;6.90;;;3.47;;
74415;SDS011;62850;42.428;25.618;2023-04-01T00:27:15;8.75;;;3.05;;
74415;SDS011;62850;42.428;25.618;2023-04-01T00:29:41;7.25;;;3.42;;
74415;SDS011;62850;42.428;25.618;2023-04-01T00:32:08;7.05;;;3.05;;
74415;SDS011;62850;42.428;25.618;2023-04-01T00:34:34;9.35;;;3.33;;
74415;SDS011;62850;42.428;25.618;2023-04-01T00:36:59;6.22;;;3.17;;
74415;SDS011;62850;42.428;25.618;2023-04-01T00:39:25;6.40;;;3.10;;
74415;SDS011;62850;42.428;25.618;2023-04-01T00:41:53;7.57;;;3.42;;
74415;SDS011;62850;42.428;25.618;2023-04-01T00:46:49;9.27;;;3.72;;
74415;SDS011;62850;42.428;25.618;2023-04-01T00:49:15;11.02;;;4.00;;
74415;SDS011;62850;42.428;25.618;2023-04-01T00:51:43;10.20;;;3.67;;
74415;SDS011;62850;42.428;25.618;2023-04-01T00:54:13;9.52;;;3.50;;
74415;SDS011;62850;42.428;25.618;2023-04-01T00:56:45;9.85;;;3.88;;
74415;SDS011;62850;42.428;25.618;2023-04-01T00:59:25;8.73;;;3.85;;
74415;SDS011;62850;42.428;25.618;2023-04-01T01:01:54;10.90;;;4.05;;
74415;SDS011;62850;42.428;25.618;2023-04-01T01:04:21;7.20;;;4.25;;
74415;SDS011;62850;42.428;25.618;2023-04-01T01:07:07;9.32;;;3.90;;
74415;SDS011;62850;42.428;25.618;2023-04-01T01:12:35;8.82;;;3.63;;
74415;SDS011;62850;42.428;25.618;2023-04-01T01:15:19;12.05;;;4.80;;
74415;SDS011;62850;42.428;25.618;2023-04-01T01:31:38;12.13;;;5.70;;
74415;SDS011;62850;42.428;25.618;2023-04-01T01:36:51;13.57;;;4.40;;
74415;SDS011;62850;42.428;25.618;2023-04-01T01:39:20;10.38;;;4.53;;
74415;SDS011;62850;42.428;25.618;2023-04-01T01:41:52;12.20;;;5.30;;
74415;SDS011;62850;42.428;25.618;2023-04-01T01:44:21;11.43;;;5.25;;
74415;SDS011;62850;42.428;25.618;2023-04-01T01:46:47;8.10;;;3.50;;
74415;SDS011;62850;42.428;25.618;2023-04-01T01:49:14;8.68;;;3.60;;
74415;SDS011;62850;42.428;25.618;2023-04-01T01:51:42;8.70;;;4.00;;
74415;SDS011;62850;42.428;25.618;2023-04-01T01:54:12;7.57;;;3.50;;
74415;SDS011;62850;42.428;25.618;2023-04-01T01:56:39;11.10;;;3.67;;
74415;SDS011;62850;42.428;25.618;2023-04-01T01:59:08;7.60;;;3.53;;
74415;SDS011;62850;42.428;25.618;2023-04-01T02:01:37;8.15;;;3.20;;
74415;SDS011;62850;42.428;25.618;2023-04-01T02:04:06;10.65;;;4.20;;
74415;SDS011;62850;42.428;25.618;2023-04-01T02:06:36;6.55;;;3.50;;
74415;SDS011;62850;42.428;25.618;2023-04-01T02:09:05;9.07;;;4.07;;
74415;SDS011;62850;42.428;25.618;2023-04-01T02:14:19;8.93;;;3.45;;
74415;SDS011;62850;42.428;25.618;2023-04-01T02:16:53;10.10;;;3.63;;
74415;SDS011;62850;42.428;25.618;2023-04-01T02:19:25;9.65;;;3.58;;
74415;SDS011;62850;42.428;25.618;2023-04-01T02:21:55;10.88;;;3.78;;
74415;SDS011;62850;42.428;25.618;2023-04-01T02:24:25;8.50;;;3.40;;
74415;SDS011;62850;42.428;25.618;2023-04-01T02:26:52;9.30;;;4.22;;
74415;SDS011;62850;42.428;25.618;2023-04-01T02:29:19;9.93;;;4.53;;
74415;SDS011;62850;42.428;25.618;2023-04-01T02:31:47;13.43;;;4.85;;
74415;SDS011;62850;42.428;25.618;2023-04-01T02:34:13;15.77;;;5.97;;
74415;SDS011;62850;42.428;25.618;2023-04-01T02:36:39;14.48;;;4.25;;
74415;SDS011;62850;42.428;25.618;2023-04-01T02:39:05;14.13;;;5.47;;
74415;SDS011;62850;42.428;25.618;2023-04-01T02:41:31;13.75;;;4.97;;
74415;SDS011;62850;42.428;25.618;2023-04-01T02:44:03;13.38;;;4.75;;
74415;SDS011;62850;42.428;25.618;2023-04-01T02:46:29;8.35;;;4.15;;
74415;SDS011;62850;42.428;25.618;2023-04-01T02:48:54;11.27;;;3.80;;
74415;SDS011;62850;42.428;25.618;2023-04-01T02:51:19;9.90;;;3.65;;
74415;SDS011;62850;42.428;25.618;2023-04-01T02:53:45;6.60;;;3.22;;
74415;SDS011;62850;42.428;25.618;2023-04-01T02:56:10;7.47;;;3.08;;
74415;SDS011;62850;42.428;25.618;2023-04-01T02:58:36;8.48;;;3.30;;
74415;SDS011;62850;42.428;25.618;2023-04-01T03:01:01;7.13;;;2.80;;
74415;SDS011;62850;42.428;25.618;2023-04-01T03:03:27;6.68;;;2.60;;
74415;SDS011;62850;42.428;25.618;2023-04-01T03:05:52;8.82;;;2.58;;
74415;SDS011;62850;42.428;25.618;2023-04-01T03:08:21;5.40;;;2.72;;
74415;SDS011;62850;42.428;25.618;2023-04-01T03:10:46;6.05;;;2.60;;
74415;SDS011;62850;42.428;25.618;2023-04-01T03:13:12;9.60;;;3.00;;
74415;SDS011;62850;42.428;25.618;2023-04-01T03:15:37;8.00;;;3.28;;
74415;SDS011;62850;42.428;25.618;2023-04-01T03:18:02;6.30;;;2.67;;
74415;SDS011;62850;42.428;25.618;2023-04-01T03:20:28;8.13;;;2.90;;
74415;SDS011;62850;42.428;25.618;2023-04-01T03:22:53;5.03;;;2.90;;
74415;SDS011;62850;42.428;25.618;2023-04-01T03:25:19;8.32;;;3.20;;
74415;SDS011;62850;42.428;25.618;2023-04-01T03:27:45;6.38;;;3.10;;
74415;SDS011;62850;42.428;25.618;2023-04-01T03:30:10;9.45;;;3.30;;
74415;SDS011;62850;42.428;25.618;2023-04-01T03:32:36;7.97;;;3.17;;
74415;SDS011;62850;42.428;25.618;2023-04-01T03:35:01;13.70;;;4.80;;
74415;SDS011;62850;42.428;25.618;2023-04-01T03:37:27;11.15;;;5.72;;
74415;SDS011;62850;42.428;25.618;2023-04-01T03:39:52;12.57;;;5.38;;
74415;SDS011;62850;42.428;25.618;2023-04-01T03:42:18;9.07;;;5.25;;
74415;SDS011;62850;42.428;25.618;2023-04-01T03:44:43;10.25;;;5.07;;
74415;SDS011;62850;42.428;25.618;2023-04-01T03:47:09;10.93;;;5.50;;
74415;SDS011;62850;42.428;25.618;2023-04-01T03:49:35;12.73;;;5.97;;
74415;SDS011;62850;42.428;25.618;2023-04-01T03:52:00;13.23;;;5.55;;
74415;SDS011;62850;42.428;25.618;2023-04-01T03:54:26;10.48;;;5.18;;
74415;SDS011;62850;42.428;25.618;2023-04-01T03:56:51;12.45;;;5.25;;
74415;SDS011;62850;42.428;25.618;2023-04-01T03:59:17;13.75;;;5.85;;
74415;SDS011;62850;42.428;25.618;2023-04-01T04:01:42;13.57;;;6.50;;
74415;SDS011;62850;42.428;25.618;2023-04-01T04:04:10;14.10;;;5.50;;
74415;SDS011;62850;42.428;25.618;2023-04-01T04:06:38;13.00;;;6.10;;
74415;SDS011;62850;42.428;25.618;2023-04-01T04:09:03;13.90;;;5.75;;
74415;SDS011;62850;42.428;25.618;2023-04-01T04:11:30;9.43;;;4.60;;
74415;SDS011;62850;42.428;25.618;2023-04-01T04:13:56;14.48;;;5.10;;
74415;SDS011;62850;42.428;25.618;2023-04-01T04:16:21;8.95;;;4.47;;
74415;SDS011;62850;42.428;25.618;2023-04-01T04:18:47;11.27;;;4.75;;
74415;SDS011;62850;42.428;25.618;2023-04-01T04:21:13;22.95;;;8.73;;
74415;SDS011;62850;42.428;25.618;2023-04-01T04:23:39;16.73;;;7.35;;
74415;SDS011;62850;42.428;25.618;2023-04-01T04:26:06;12.60;;;7.35;;
74415;SDS011;62850;42.428;25.618;2023-04-01T04:28:33;16.98;;;6.55;;
74415;SDS011;62850;42.428;25.618;2023-04-01T04:30:58;12.30;;;6.60;;
74415;SDS011;62850;42.428;25.618;2023-04-01T04:33:24;14.65;;;6.68;;
74415;SDS011;62850;42.428;25.618;2023-04-01T04:35:50;13.82;;;6.65;;
74415;SDS011;62850;42.428;25.618;2023-04-01T04:38:17;15.50;;;7.68;;
74415;SDS011;62850;42.428;25.618;2023-04-01T04:40:42;19.05;;;7.38;;
74415;SDS011;62850;42.428;25.618;2023-04-01T04:43:12;19.15;;;8.10;;
74415;SDS011;62850;42.428;25.618;2023-04-01T04:45:39;20.25;;;8.18;;
74415;SDS011;62850;42.428;25.618;2023-04-01T04:48:06;19.05;;;10.48;;
74415;SDS011;62850;42.428;25.618;2023-04-01T04:50:33;19.45;;;11.35;;
74415;SDS011;62850;42.428;25.618;2023-04-01T04:52:58;19.85;;;11.52;;
74415;SDS011;62850;42.428;25.618;2023-04-01T04:55:24;22.25;;;12.00;;
74415;SDS011;62850;42.428;25.618;2023-04-01T04:57:49;21.98;;;10.60;;
74415;SDS011;62850;42.428;25.618;2023-04-01T05:00:15;23.63;;;11.95;;
74415;SDS011;62850;42.428;25.618;2023-04-01T05:02:41;24.35;;;12.55;;
74415;SDS011;62850;42.428;25.618;2023-04-01T05:05:07;22.00;;;13.25;;
74415;SDS011;62850;42.428;25.618;2023-04-01T05:07:33;24.52;;;12.48;;
74415;SDS011;62850;42.428;25.618;2023-04-01T05:09:58;31.15;;;13.07;;
74415;SDS011;62850;42.428;25.618;2023-04-01T05:12:24;23.13;;;11.07;;
74415;SDS011;62850;42.428;25.618;2023-04-01T05:14:50;22.60;;;10.98;;
74415;SDS011;62850;42.428;25.618;2023-04-01T05:17:15;21.77;;;9.27;;
74415;SDS011;62850;42.428;25.618;2023-04-01T05:19:40;16.60;;;7.85;;
74415;SDS011;62850;42.428;25.618;2023-04-01T05:22:06;20.05;;;7.90;;
74415;SDS011;62850;42.428;25.618;2023-04-01T05:24:31;18.75;;;7.03;;
74415;SDS011;62850;42.428;25.618;2023-04-01T05:26:57;16.50;;;8.48;;
74415;SDS011;62850;42.428;25.618;2023-04-01T05:29:24;16.98;;;8.20;;
74415;SDS011;62850;42.428;25.618;2023-04-01T05:31:50;18.15;;;8.10;;
74415;SDS011;62850;42.428;25.618;2023-04-01T05:34:16;21.95;;;8.68;;
74415;SDS011;62850;42.428;25.618;2023-04-01T05:36:42;16.00;;;7.40;;
74415;SDS011;62850;42.428;25.618;2023-04-01T05:39:08;22.70;;;8.60;;
74415;SDS011;62850;42.428;25.618;2023-04-01T05:41:35;16.33;;;9.07;;
74415;SDS011;62850;42.428;25.618;2023-04-01T05:44:01;22.35;;;8.75;;
74415;SDS011;62850;42.428;25.618;2023-04-01T05:46:26;17.75;;;8.40;;
74415;SDS011;62850;42.428;25.618;2023-04-01T05:48:52;15.77;;;7.45;;
74415;SDS011;62850;42.428;25.618;2023-04-01T05:51:18;20.90;;;7.38;;
74415;SDS011;62850;42.428;25.618;2023-04-01T05:53:43;17.85;;;7.15;;
74415;SDS011;62850;42.428;25.618;2023-04-01T05:56:08;11.05;;;6.13;;
74415;SDS011;62850;42.428;25.618;2023-04-01T05:58:35;13.93;;;6.22;;
74415;SDS011;62850;42.428;25.618;2023-04-01T06:01:05;17.42;;;5.45;;
74415;SDS011;62850;42.428;25.618;2023-04-01T06:03:32;13.90;;;5.78;;
74415;SDS011;62850;42.428;25.618;2023-04-01T06:05:58;19.48;;;5.15;;
74415;SDS011;62850;42.428;25.618;2023-04-01T06:08:24;12.13;;;4.80;;
74415;SDS011;62850;42.428;25.618;2023-04-01T06:16:04;8.73;;;4.45;;
74415;SDS011;62850;42.428;25.618;2023-04-01T06:18:54;13.93;;;4.30;;
74415;SDS011;62850;42.428;25.618;2023-04-01T06:27:07;8.32;;;3.67;;
74415;SDS011;62850;42.428;25.618;2023-04-01T06:30:02;8.68;;;3.60;;
74415;SDS011;62850;42.428;25.618;2023-04-01T06:38:04;10.32;;;4.15;;
74415;SDS011;62850;42.428;25.618;2023-04-01T06:40:37;13.98;;;4.82;;
74415;SDS011;62850;42.428;25.618;2023-04-01T06:44:07;9.68;;;4.20;;
74415;SDS011;62850;42.428;25.618;2023-04-01T06:51:48;14.95;;;6.20;;
74415;SDS011;62850;42.428;25.618;2023-04-01T06:54:40;12.77;;;5.20;;
74415;SDS011;62850;42.428;25.618;2023-04-01T06:57:29;13.43;;;4.50;;
74415;SDS011;62850;42.428;25.618;2023-04-01T07:00:00;9.45;;;4.28;;
74415;SDS011;62850;42.428;25.618;2023-04-01T07:05:07;10.10;;;3.75;;
74415;SDS011;62850;42.428;25.618;2023-04-01T07:07:34;14.52;;;4.43;;
74415;SDS011;62850;42.428;25.618;2023-04-01T07:10:05;8.85;;;4.65;;
74415;SDS011;62850;42.428;25.618;2023-04-01T07:12:40;13.10;;;4.63;;
74415;SDS011;62850;42.428;25.618;2023-04-01T07:15:16;9.63;;;4.82;;
74415;SDS011;62850;42.428;25.618;2023-04-01T07:17:43;12.05;;;4.63;;
74415;SDS011;62850;42.428;25.618;2023-04-01T07:20:23;10.05;;;4.72;;
74415;SDS011;62850;42.428;25.618;2023-04-01T07:23:00;9.32;;;4.68;;
74415;SDS011;62850;42.428;25.618;2023-04-01T07:25:39;11.45;;;4.80;;
74415;SDS011;62850;42.428;25.618;2023-04-01T07:28:15;13.32;;;4.70;;
74415;SDS011;62850;42.428;25.618;2023-04-01T07:30:58;12.55;;;4.70;;
74415;SDS011;62850;42.428;25.618;2023-04-01T07:33:45;9.98;;;4.10;;
74415;SDS011;62850;42.428;25.618;2023-04-01T07:39:49;10.55;;;4.40;;
74415;SDS011;62850;42.428;25.618;2023-04-01T07:50:27;13.15;;;5.05;;
74415;SDS011;62850;42.428;25.618;2023-04-01T07:58:28;13.52;;;5.22;;
74415;SDS011;62850;42.428;25.618;2023-04-01T08:01:05;14.30;;;4.88;;
74415;SDS011;62850;42.428;25.618;2023-04-01T08:09:41;9.00;;;3.30;;
74415;SDS011;62850;42.428;25.618;2023-04-01T08:12:34;8.07;;;3.50;;
74415;SDS011;62850;42.428;25.618;2023-04-01T08:17:54;12.45;;;3.60;;
74415;SDS011;62850;42.428;25.618;2023-04-01T08:20:34;9.18;;;3.50;;
74415;SDS011;62850;42.428;25.618;2023-04-01T08:25:58;8.30;;;3.35;;
74415;SDS011;62850;42.428;25.618;2023-04-01T08:34:01;13.02;;;4.30;;
74415;SDS011;62850;42.428;25.618;2023-04-01T08:39:07;9.05;;;3.55;;
74415;SDS011;62850;42.428;25.618;2023-04-01T08:52:36;9.07;;;3.30;;
74415;SDS011;62850;42.428;25.618;2023-04-01T09:22:28;12.40;;;4.93;;
74415;SDS011;62850;42.428;25.618;2023-04-01T09:34:01;10.45;;;4.03;;
74415;SDS011;62850;42.428;25.618;2023-04-01T09:36:46;12.65;;;4.20;;
74415;SDS011;62850;42.428;25.618;2023-04-01T09:39:37;12.98;;;3.90;;
74415;SDS011;62850;42.428;25.618;2023-04-01T09:45:00;9.38;;;3.53;;
74415;SDS011;62850;42.428;25.618;2023-04-01T09:50:35;11.90;;;3.55;;
74415;SDS011;62850;42.428;25.618;2023-04-01T10:24:59;12.02;;;3.95;;
74415;SDS011;62850;42.428;25.618;2023-04-01T10:41:44;10.20;;;3.67;;
74415;SDS011;62850;42.428;25.618;2023-04-01T11:25:41;10.98;;;3.53;;
74415;SDS011;62850;42.428;25.618;2023-04-01T11:28:19;10.20;;;3.70;;
74415;SDS011;62850;42.428;25.618;2023-04-01T11:31:11;10.45;;;3.65;;
74415;SDS011;62850;42.428;25.618;2023-04-01T11:34:27;11.20;;;3.88;;
74415;SDS011;62850;42.428;25.618;2023-04-01T14:58:23;12.70;;;4.38;;
74415;SDS011;62850;42.428;25.618;2023-04-01T15:04:15;5.38;;;2.33;;
74415;SDS011;62850;42.428;25.618;2023-04-01T15:12:23;5.00;;;1.90;;
74415;SDS011;62850;42.428;25.618;2023-04-01T15:23:10;4.88;;;1.60;;
74415;SDS011;62850;42.428;25.618;2023-04-01T15:36:00;5.63;;;2.08;;
74415;SDS011;62850;42.428;25.618;2023-04-01T15:43:45;5.28;;;2.00;;
74415;SDS011;62850;42.428;25.618;2023-04-01T15:57:24;9.13;;;3.13;;
74415;SDS011;62850;42.428;25.618;2023-04-01T16:00:11;9.80;;;4.40;;
74415;SDS011;62850;42.428;25.618;2023-04-01T16:06:22;11.35;;;3.75;;
74415;SDS011;62850;42.428;25.618;2023-04-01T16:27:46;7.57;;;3.70;;
74415;SDS011;62850;42.428;25.618;2023-04-01T16:30:25;8.57;;;3.97;;
74415;SDS011;62850;42.428;25.618;2023-04-01T16:33:03;9.68;;;3.65;;
74415;SDS011;62850;42.428;25.618;2023-04-01T16:41:31;5.72;;;3.13;;
74415;SDS011;62850;42.428;25.618;2023-04-01T16:57:02;14.80;;;7.75;;
74415;SDS011;62850;42.428;25.618;2023-04-01T16:59:44;14.77;;;8.23;;
74415;SDS011;62850;42.428;25.618;2023-04-01T17:02:14;17.73;;;8.65;;
74415;SDS011;62850;42.428;25.618;2023-04-01T17:22:07;15.20;;;7.10;;
74415;SDS011;62850;42.428;25.618;2023-04-01T17:27:30;16.35;;;7.22;;
74415;SDS011;62850;42.428;25.618;2023-04-01T17:30:10;14.93;;;5.80;;
74415;SDS011;62850;42.428;25.618;2023-04-01T17:35:32;15.48;;;7.32;;
74415;SDS011;62850;42.428;25.618;2023-04-01T17:47:41;9.27;;;3.63;;
74415;SDS011;62850;42.428;25.618;2023-04-01T18:01:56;12.23;;;6.22;;
74415;SDS011;62850;42.428;25.618;2023-04-01T18:11:04;7.18;;;3.95;;
74415;SDS011;62850;42.428;25.618;2023-04-01T18:13:55;8.63;;;3.95;;
74415;SDS011;62850;42.428;25.618;2023-04-01T18:16:30;9.55;;;4.72;;
74415;SDS011;62850;42.428;25.618;2023-04-01T18:19:13;9.07;;;3.00;;
74415;SDS011;62850;42.428;25.618;2023-04-01T18:21:55;6.65;;;2.53;;
74415;SDS011;62850;42.428;25.618;2023-04-01T18:26:59;10.65;;;3.92;;
74415;SDS011;62850;42.428;25.618;2023-04-01T18:34:59;10.75;;;4.38;;
74415;SDS011;62850;42.428;25.618;2023-04-01T18:40:30;9.23;;;4.10;;
74415;SDS011;62850;42.428;25.618;2023-04-01T18:56:35;8.63;;;3.90;;
74415;SDS011;62850;42.428;25.618;2023-04-01T19:01:33;6.78;;;2.67;;
74415;SDS011;62850;42.428;25.618;2023-04-01T19:04:39;4.50;;;2.25;;
74415;SDS011;62850;42.428;25.618;2023-04-01T19:09:52;4.40;;;2.40;;
74415;SDS011;62850;42.428;25.618;2023-04-01T19:20:37;4.82;;;2.25;;
74415;SDS011;62850;42.428;25.618;2023-04-01T19:25:50;5.10;;;2.40;;
74415;SDS011;62850;42.428;25.618;2023-04-01T19:41:55;5.25;;;1.50;;
74415;SDS011;62850;42.428;25.618;2023-04-01T19:49:59;5.90;;;2.30;;
74415;SDS011;62850;42.428;25.618;2023-04-01T19:52:52;6.50;;;2.17;;
74415;SDS011;62850;42.428;25.618;2023-04-01T20:00:57;6.47;;;2.78;;
74415;SDS011;62850;42.428;25.618;2023-04-01T20:03:33;4.90;;;2.50;;
74415;SDS011;62850;42.428;25.618;2023-04-01T20:06:28;6.20;;;2.80;;
74415;SDS011;62850;42.428;25.618;2023-04-01T20:22:38;5.18;;;2.50;;
74415;SDS011;62850;42.428;25.618;2023-04-01T20:33:02;4.70;;;2.50;;
74415;SDS011;62850;42.428;25.618;2023-04-01T20:41:26;7.47;;;2.90;;
74415;SDS011;62850;42.428;25.618;2023-04-01T20:51:57;6.60;;;2.80;;
74415;SDS011;62850;42.428;25.618;2023-04-01T21:28:46;5.55;;;2.50;;
74415;SDS011;62850;42.428;25.618;2023-04-01T21:37:20;5.80;;;2.13;;
74415;SDS011;62850;42.428;25.618;2023-04-01T21:52:38;4.10;;;2.00;;
74415;SDS011;62850;42.428;25.618;2023-04-01T22:03:13;8.10;;;2.20;;
74415;SDS011;62850;42.428;25.618;2023-04-01T22:06:08;4.05;;;2.22;;
74415;SDS011;62850;42.428;25.618;2023-04-01T22:09:18;3.80;;;2.05;;
74415;SDS011;62850;42.428;25.618;2023-04-01T22:17:16;4.40;;;2.00;;
74415;SDS011;62850;42.428;25.618;2023-04-01T22:28:29;5.15;;;2.28;;
74415;SDS011;62850;42.428;25.618;2023-04-01T22:31:02;4.20;;;1.90;;
74415;SDS011;62850;42.428;25.618;2023-04-01T22:43:54;3.10;;;1.42;;
74415;SDS011;62850;42.428;25.618;2023-04-01T22:51:45;4.53;;;2.30;;
74415;SDS011;62850;42.428;25.618;2023-04-01T23:02:18;3.88;;;1.80;;
74415;SDS011;62850;42.428;25.618;2023-04-01T23:04:54;4.10;;;2.10;;
74415;SDS011;62850;42.428;25.618;2023-04-01T23:10:02;4.97;;;2.10;;
74415;SDS011;62850;42.428;25.618;2023-04-01T23:12:36;4.38;;;2.20;;
74415;SDS011;62850;42.428;25.618;2023-04-01T23:15:03;4.80;;;2.10;;
74415;SDS011;62850;42.428;25.618;2023-04-01T23:22:34;3.92;;;1.92;;
74415;SDS011;62850;42.428;25.618;2023-04-01T23:25:13;5.53;;;1.95;;
74415;SDS011;62850;42.428;25.618;2023-04-01T23:27:45;4.45;;;2.03;;
74415;SDS011;62850;42.428;25.618;2023-04-01T23:30:50;5.63;;;2.50;;
74415;SDS011;62850;42.428;25.618;2023-04-01T23:35:53;5.75;;;2.50;;
74415;SDS011;62850;42.428;25.618;2023-04-01T23:38:37;4.13;;;2.45;;
74415;SDS011;62850;42.428;25.618;2023-04-01T23:41:06;6.88;;;2.58;;
74415;SDS011;62850;42.428;25.618;2023-04-01T23:43:41;4.90;;;1.83;;
74415;SDS011;62850;42.428;25.618;2023-04-01T23:46:09;4.50;;;2.20;;
74415;SDS011;62850;42.428;25.618;2023-04-01T23:48:41;5.15;;;2.20;;
74415;SDS011;62850;42.428;25.618;2023-04-01T23:51:27;3.72;;;1.60;;
74415;SDS011;62850;42.428;25.618;2023-04-01T23:54:03;5.55;;;1.95;;
74415;SDS011;62850;42.428;25.618;2023-04-01T23:59:09;2.58;;;1.42;;
